Time;durP1;ratioP1;P1;durP2;ratioP2;P2;SDS_P1;SDS_P2;PMS_P1;PMS_P2;Temp;Humidity;BMP_temperature;BMP_pressure;BME280_temperature;BME280_humidity;BME280_pressure;Samples;Min_cycle;Max_cycle;Signal;HPM_P1;HPM_P2
2022/05/01 00:00:10;;;;;;;15.40;10.38;;;4.30;99.90;;;;;;4965968;28;20046;-75
2022/05/01 00:02:35;;;;;;;12.23;9.73;;;4.30;99.90;;;;;;4968102;28;20068;-76
2022/05/01 00:05:01;;;;;;;14.95;9.73;;;4.20;99.90;;;;;;4983228;28;20053;-76
2022/05/01 00:07:28;;;;;;;14.98;9.68;;;4.20;99.90;;;;;;4990128;28;20053;-75
2022/05/01 00:09:53;;;;;;;12.20;9.75;;;4.20;99.90;;;;;;4980649;28;20052;-76
2022/05/01 00:12:19;;;;;;;13.63;9.27;;;4.10;99.90;;;;;;4992360;28;20034;-76
2022/05/01 00:14:45;;;;;;;15.40;9.95;;;4.20;99.90;;;;;;4992304;28;20047;-75
2022/05/01 00:17:11;;;;;;;18.23;9.48;;;4.10;99.90;;;;;;4986873;28;20038;-75
2022/05/01 00:19:36;;;;;;;13.20;9.43;;;4.00;99.90;;;;;;4986010;28;20124;-76
2022/05/01 00:22:02;;;;;;;15.43;10.20;;;4.20;99.90;;;;;;4983504;28;20141;-76
2022/05/01 00:24:28;;;;;;;11.35;9.30;;;3.90;99.90;;;;;;4957815;28;20088;-75
2022/05/01 00:26:54;;;;;;;11.95;9.48;;;3.90;99.90;;;;;;4981422;28;20109;-76
2022/05/01 00:29:20;;;;;;;12.73;9.77;;;3.90;99.90;;;;;;4967463;28;20501;-76
2022/05/01 00:31:45;;;;;;;11.20;8.75;;;3.80;99.90;;;;;;4969943;28;20045;-76
2022/05/01 00:36:55;;;;;;;11.40;9.77;;;3.80;99.90;;;;;;4982006;28;20058;-76
2022/05/01 00:39:21;;;;;;;12.63;9.82;;;3.80;99.90;;;;;;4980161;28;20108;-76
2022/05/01 00:41:46;;;;;;;12.13;9.40;;;3.80;99.90;;;;;;4980917;28;20046;-77
2022/05/01 00:44:17;;;;;;;13.85;9.80;;;3.70;99.90;;;;;;4978563;28;20034;-76
2022/05/01 00:46:51;;;;;;;11.38;9.25;;;3.70;99.90;;;;;;4981699;28;20470;-76
2022/05/01 00:49:19;;;;;;;14.65;9.38;;;3.70;99.90;;;;;;4967336;28;20060;-75
2022/05/01 00:51:58;;;;;;;11.90;9.43;;;3.60;99.90;;;;;;4970821;28;20049;-77
2022/05/01 00:54:32;;;;;;;12.65;9.70;;;3.60;99.90;;;;;;4981015;28;20041;-77
2022/05/01 00:57:01;;;;;;;11.90;9.30;;;3.60;99.90;;;;;;4977848;28;20041;-77
2022/05/01 00:59:28;;;;;;;13.98;9.77;;;3.50;99.90;;;;;;4963372;28;20493;-76
2022/05/01 01:01:55;;;;;;;12.43;9.88;;;3.50;99.90;;;;;;4978879;28;20046;-76
2022/05/01 01:04:20;;;;;;;11.98;10.02;;;3.40;99.90;;;;;;4964083;28;20576;-76
2022/05/01 01:06:48;;;;;;;13.75;9.80;;;3.40;99.90;;;;;;4965000;28;20038;-77
2022/05/01 01:09:15;;;;;;;13.10;10.68;;;3.40;99.90;;;;;;4981805;28;20042;-76
2022/05/01 01:11:42;;;;;;;13.38;9.55;;;3.40;99.90;;;;;;4981925;28;20038;-75
2022/05/01 01:14:09;;;;;;;14.52;10.18;;;3.40;99.90;;;;;;4957044;28;20077;-76
2022/05/01 01:16:36;;;;;;;13.95;9.73;;;3.40;99.90;;;;;;4980509;28;20061;-75
2022/05/01 01:19:09;;;;;;;12.75;10.38;;;3.30;99.90;;;;;;4979483;28;20124;-75
2022/05/01 01:21:35;;;;;;;12.85;10.82;;;3.30;99.90;;;;;;4979326;28;20793;-76
2022/05/01 01:24:09;;;;;;;13.10;10.25;;;3.40;99.90;;;;;;4968293;28;20042;-76
2022/05/01 01:26:35;;;;;;;13.10;10.13;;;3.40;99.90;;;;;;4984997;28;20497;-76
2022/05/01 01:29:01;;;;;;;11.43;10.23;;;3.30;99.90;;;;;;4980795;28;20072;-75
2022/05/01 01:31:42;;;;;;;12.32;9.75;;;3.30;99.90;;;;;;4981903;28;20108;-75
2022/05/01 01:34:17;;;;;;;14.48;10.27;;;3.20;99.90;;;;;;4981769;28;20088;-76
2022/05/01 01:36:46;;;;;;;12.48;9.88;;;3.20;99.90;;;;;;4981649;28;20081;-76
2022/05/01 01:39:18;;;;;;;14.60;9.85;;;3.20;99.90;;;;;;4962259;28;20082;-75
2022/05/01 01:41:47;;;;;;;14.50;10.27;;;3.20;99.90;;;;;;4986915;28;20038;-76
2022/05/01 01:44:13;;;;;;;16.58;10.60;;;3.20;99.90;;;;;;5016011;28;20053;-73
2022/05/01 01:46:39;;;;;;;17.20;10.10;;;3.10;99.90;;;;;;5004389;28;20022;-76
2022/05/01 01:49:10;;;;;;;14.13;9.95;;;3.10;99.90;;;;;;5010860;28;20061;-76
2022/05/01 01:51:37;;;;;;;11.60;8.98;;;3.10;99.90;;;;;;5015535;28;20042;-75
2022/05/01 01:54:03;;;;;;;12.65;10.30;;;3.10;99.90;;;;;;4981331;28;20053;-75
2022/05/01 01:56:29;;;;;;;12.88;10.23;;;3.00;99.90;;;;;;5001008;28;20050;-75
2022/05/01 01:58:54;;;;;;;13.05;10.55;;;3.00;99.90;;;;;;4996466;28;20084;-76
2022/05/01 02:01:20;;;;;;;14.98;9.63;;;3.00;99.90;;;;;;4977130;28;20090;-76
2022/05/01 02:03:45;;;;;;;11.80;9.35;;;3.00;99.90;;;;;;4980197;28;20100;-76
2022/05/01 02:06:11;;;;;;;10.15;8.65;;;2.90;99.90;;;;;;4980306;28;20082;-75
2022/05/01 02:08:37;;;;;;;13.52;8.70;;;3.00;99.90;;;;;;4987392;28;20604;-76
2022/05/01 02:11:04;;;;;;;14.40;9.30;;;3.00;99.90;;;;;;4979085;28;20545;-77
2022/05/01 02:13:30;;;;;;;12.20;8.32;;;2.90;99.90;;;;;;4974729;28;20084;-76
2022/05/01 02:15:56;;;;;;;11.88;8.45;;;2.90;99.90;;;;;;4954591;28;20049;-75
2022/05/01 02:18:22;;;;;;;10.05;7.38;;;2.80;99.90;;;;;;4978241;28;20049;-75
2022/05/01 02:23:33;;;;;;;8.40;6.72;;;2.80;99.90;;;;;;4978598;28;20070;-75
2022/05/01 02:25:59;;;;;;;9.32;7.38;;;2.80;99.90;;;;;;4983022;28;20042;-74
2022/05/01 02:28:25;;;;;;;9.90;7.32;;;2.70;99.90;;;;;;4988335;28;20045;-74
2022/05/01 02:30:51;;;;;;;7.88;6.68;;;2.70;99.90;;;;;;4966052;28;20048;-76
2022/05/01 02:33:18;;;;;;;8.40;6.60;;;2.70;99.90;;;;;;4980084;28;20121;-75
2022/05/01 02:35:44;;;;;;;7.80;6.35;;;2.60;99.90;;;;;;4963910;28;20045;-76
2022/05/01 02:38:12;;;;;;;6.10;5.50;;;2.60;99.90;;;;;;5002494;28;20057;-75
2022/05/01 02:40:39;;;;;;;6.50;5.57;;;2.60;99.90;;;;;;4985786;28;20080;-74
2022/05/01 02:43:05;;;;;;;7.03;5.40;;;2.60;99.90;;;;;;4984074;28;20046;-75
2022/05/01 02:45:31;;;;;;;6.40;5.20;;;2.50;99.90;;;;;;4970645;28;20053;-76
2022/05/01 02:47:57;;;;;;;6.57;5.00;;;2.50;99.90;;;;;;4984460;28;20054;-75
2022/05/01 02:50:23;;;;;;;6.55;5.45;;;2.50;99.90;;;;;;4987625;28;20057;-74
2022/05/01 02:52:54;;;;;;;5.65;5.05;;;2.40;99.90;;;;;;4966440;28;20802;-76
2022/05/01 02:55:20;;;;;;;7.20;5.30;;;2.40;99.90;;;;;;4967529;28;20104;-75
2022/05/01 02:57:46;;;;;;;6.45;4.90;;;2.50;99.90;;;;;;4984544;28;20054;-75
2022/05/01 03:00:17;;;;;;;6.47;4.95;;;2.40;99.90;;;;;;4986476;28;20477;-75
2022/05/01 03:02:48;;;;;;;5.88;5.28;;;2.40;99.90;;;;;;4997933;28;20297;-75
2022/05/01 03:05:14;;;;;;;5.80;5.10;;;2.40;99.90;;;;;;4971357;28;20053;-76
2022/05/01 03:07:40;;;;;;;8.45;5.60;;;2.40;99.90;;;;;;4996066;28;20105;-76
2022/05/01 03:10:07;;;;;;;6.70;5.60;;;2.40;99.90;;;;;;4972230;28;20034;-75
2022/05/01 03:12:33;;;;;;;6.43;5.25;;;2.40;99.90;;;;;;4978742;28;20129;-75
2022/05/01 03:14:58;;;;;;;6.28;5.30;;;2.40;99.90;;;;;;5004448;28;20129;-73
2022/05/01 03:17:24;;;;;;;6.05;5.03;;;2.40;99.90;;;;;;4988188;28;20089;-74
2022/05/01 03:22:34;;;;;;;6.20;5.63;;;2.30;99.90;;;;;;4984947;28;20088;-74
2022/05/01 03:25:00;;;;;;;6.43;5.82;;;2.40;99.90;;;;;;4971918;28;20069;-75
2022/05/01 03:27:26;;;;;;;6.20;5.60;;;2.30;99.90;;;;;;4984767;28;20397;-74
2022/05/01 03:32:36;;;;;;;6.20;5.60;;;2.40;99.90;;;;;;4984319;28;20038;-75
2022/05/01 03:35:02;;;;;;;6.35;5.75;;;2.30;99.90;;;;;;4986311;28;20825;-75
2022/05/01 03:37:29;;;;;;;6.57;5.95;;;2.30;99.90;;;;;;4982653;28;20054;-75
2022/05/01 03:39:55;;;;;;;6.10;5.50;;;2.20;99.90;;;;;;4983912;28;20034;-76
2022/05/01 03:42:20;;;;;;;6.40;5.80;;;2.20;99.90;;;;;;4982032;28;20536;-75
2022/05/01 03:44:46;;;;;;;5.88;5.30;;;2.20;99.90;;;;;;4985931;28;20058;-75
2022/05/01 03:47:12;;;;;;;5.47;4.97;;;2.20;99.90;;;;;;4984352;28;20037;-74
2022/05/01 03:49:37;;;;;;;5.03;4.60;;;2.20;99.90;;;;;;4983271;28;20046;-74
2022/05/01 03:52:03;;;;;;;5.43;4.93;;;2.20;99.90;;;;;;4984332;28;20556;-75
2022/05/01 03:54:29;;;;;;;6.15;5.25;;;2.20;99.90;;;;;;4971141;28;20149;-74
2022/05/01 03:56:55;;;;;;;5.90;4.70;;;2.10;99.90;;;;;;4974576;28;20045;-75
2022/05/01 03:59:20;;;;;;;5.32;4.82;;;2.20;99.90;;;;;;4974379;28;20469;-74
2022/05/01 04:01:46;;;;;;;5.45;4.95;;;2.10;99.90;;;;;;4992489;28;20676;-75
2022/05/01 04:04:13;;;;;;;5.47;4.97;;;2.10;99.90;;;;;;4980283;28;20058;-76
2022/05/01 04:06:39;;;;;;;6.25;5.65;;;2.10;99.90;;;;;;4989483;28;20195;-76
2022/05/01 04:09:05;;;;;;;7.32;5.70;;;2.10;99.90;;;;;;4985737;28;20125;-75
2022/05/01 04:11:31;;;;;;;7.22;6.13;;;2.10;99.90;;;;;;4965502;28;20053;-76
2022/05/01 04:13:56;;;;;;;6.75;6.05;;;2.10;99.90;;;;;;4985808;28;20068;-75
2022/05/01 04:16:22;;;;;;;7.47;6.25;;;2.10;99.90;;;;;;4985830;28;20063;-75
2022/05/01 04:18:47;;;;;;;7.07;6.38;;;2.00;99.90;;;;;;4981835;28;20077;-75
2022/05/01 04:21:13;;;;;;;6.88;6.18;;;2.10;99.90;;;;;;4981673;28;20050;-74
2022/05/01 04:23:39;;;;;;;7.13;6.20;;;2.10;99.90;;;;;;4982648;28;20525;-75
2022/05/01 04:26:05;;;;;;;6.85;6.15;;;2.10;99.90;;;;;;4988668;28;20482;-74
2022/05/01 04:28:31;;;;;;;6.88;6.05;;;2.10;99.90;;;;;;5000963;28;20117;-75
2022/05/01 04:30:56;;;;;;;6.78;6.07;;;2.20;99.90;;;;;;4999437;28;20049;-74
2022/05/01 04:33:22;;;;;;;6.72;6.03;;;2.20;99.90;;;;;;4993367;28;20034;-74
2022/05/01 04:35:50;;;;;;;6.47;5.88;;;2.20;99.90;;;;;;4968141;28;20046;-75
2022/05/01 04:38:24;;;;;;;7.40;6.70;;;2.30;99.90;;;;;;4968450;28;20049;-74
2022/05/01 04:40:55;;;;;;;7.53;6.20;;;2.40;99.90;;;;;;4989184;28;20469;-75
2022/05/01 04:43:25;;;;;;;7.53;6.80;;;2.40;99.90;;;;;;4990810;28;20046;-75
2022/05/01 04:45:54;;;;;;;7.18;6.50;;;2.40;99.90;;;;;;4977341;28;20049;-75
2022/05/01 04:48:21;;;;;;;7.65;6.95;;;2.50;99.90;;;;;;4968726;28;20107;-73
2022/05/01 04:50:50;;;;;;;6.70;6.10;;;2.70;99.90;;;;;;4972982;28;20360;-74
2022/05/01 04:53:18;;;;;;;6.00;5.50;;;2.70;99.90;;;;;;4980446;28;20075;-75
2022/05/01 04:55:47;;;;;;;6.15;5.60;;;2.80;99.90;;;;;;4963430;28;20076;-76
2022/05/01 04:58:15;;;;;;;5.90;5.40;;;2.90;99.90;;;;;;4988471;28;20073;-74
2022/05/01 05:00:42;;;;;;;7.15;6.45;;;2.90;99.90;;;;;;4974764;28;20105;-75
2022/05/01 05:03:08;;;;;;;6.85;6.18;;;3.10;99.90;;;;;;4958794;28;20085;-74
2022/05/01 05:05:37;;;;;;;6.95;6.25;;;3.50;99.90;;;;;;4983072;28;20085;-75
2022/05/01 05:10:49;;;;;;;9.57;7.50;;;3.40;99.90;;;;;;4986529;28;20350;-76
2022/05/01 05:13:24;;;;;;;10.98;7.75;;;3.50;99.90;;;;;;4973634;28;20125;-76
2022/05/01 05:15:50;;;;;;;8.55;7.72;;;3.60;99.90;;;;;;4978074;28;20073;-76
2022/05/01 05:18:16;;;;;;;11.75;8.02;;;3.70;99.90;;;;;;4983364;28;20054;-74
2022/05/01 05:20:44;;;;;;;9.75;8.82;;;3.90;99.90;;;;;;4985406;28;20040;-75
2022/05/01 05:23:10;;;;;;;9.13;7.85;;;4.00;99.90;;;;;;4989067;28;20485;-74
2022/05/01 05:25:35;;;;;;;9.45;8.25;;;4.10;99.90;;;;;;4986952;28;20137;-75
2022/05/01 05:28:01;;;;;;;14.45;9.00;;;4.20;99.90;;;;;;4987862;28;20069;-74
2022/05/01 05:30:27;;;;;;;11.75;8.38;;;4.30;99.90;;;;;;4988786;28;20030;-76
2022/05/01 05:32:52;;;;;;;10.50;8.77;;;4.40;99.90;;;;;;4999973;28;20037;-76
2022/05/01 05:35:18;;;;;;;10.50;9.40;;;4.50;99.90;;;;;;4985360;28;20042;-76
2022/05/01 05:37:43;;;;;;;10.00;8.60;;;4.60;99.90;;;;;;4978374;28;20429;-75
2022/05/01 05:40:10;;;;;;;14.30;9.32;;;4.60;99.90;;;;;;5000784;28;20042;-76
2022/05/01 05:42:36;;;;;;;11.48;8.65;;;4.70;99.90;;;;;;4972194;28;20046;-74
2022/05/01 05:45:02;;;;;;;11.20;8.95;;;4.80;99.90;;;;;;4960019;28;20132;-75
2022/05/01 05:47:28;;;;;;;10.80;9.75;;;4.90;99.90;;;;;;4983307;28;20153;-76
2022/05/01 05:49:54;;;;;;;14.18;9.23;;;5.00;99.90;;;;;;4975339;28;20078;-76
2022/05/01 05:52:20;;;;;;;10.85;9.73;;;5.10;99.90;;;;;;4979529;28;20030;-76
2022/05/01 05:54:46;;;;;;;14.93;9.60;;;5.30;99.90;;;;;;4966970;28;20061;-75
2022/05/01 05:57:11;;;;;;;14.93;9.85;;;5.30;99.90;;;;;;4965366;28;20470;-74
2022/05/01 05:59:37;;;;;;;13.18;10.40;;;5.50;99.90;;;;;;4978512;28;20141;-75
2022/05/01 06:02:03;;;;;;;13.43;10.63;;;5.50;99.90;;;;;;4961680;28;20054;-75
2022/05/01 06:04:29;;;;;;;14.27;10.40;;;5.60;99.90;;;;;;4980490;28;20548;-75
2022/05/01 06:06:55;;;;;;;11.57;9.68;;;5.70;99.90;;;;;;4977400;28;20513;-75
2022/05/01 06:09:20;;;;;;;13.25;10.40;;;5.80;99.90;;;;;;5002235;28;20121;-74
2022/05/01 06:11:46;;;;;;;13.40;10.10;;;5.90;99.90;;;;;;4968889;28;20116;-75
2022/05/01 06:14:12;;;;;;;12.63;10.40;;;5.90;99.90;;;;;;4975967;28;20199;-76
2022/05/01 06:16:38;;;;;;;16.00;10.73;;;6.10;99.90;;;;;;4976664;28;20053;-75
2022/05/01 06:19:05;;;;;;;12.45;10.50;;;6.20;99.90;;;;;;4978217;28;20041;-77
2022/05/01 06:21:31;;;;;;;14.18;10.20;;;6.30;99.90;;;;;;4983115;28;20076;-80
2022/05/01 06:23:59;;;;;;;5.43;4.38;;;6.30;99.90;;;;;;5000411;28;20041;-77
2022/05/01 06:26:25;;;;;;;13.50;9.27;;;6.80;99.90;;;;;;4993548;28;20438;-74
2022/05/01 06:28:51;;;;;;;12.85;10.27;;;6.90;99.90;;;;;;4975608;28;20049;-76
2022/05/01 06:31:17;;;;;;;17.52;10.52;;;7.00;99.90;;;;;;4976473;28;20436;-75
2022/05/01 06:33:44;;;;;;;12.20;9.88;;;7.00;99.90;;;;;;4965689;28;20042;-77
2022/05/01 06:36:11;;;;;;;13.77;9.77;;;7.00;99.90;;;;;;4961807;28;20106;-75
2022/05/01 06:38:36;;;;;;;13.50;8.95;;;7.10;99.90;;;;;;4996829;28;20420;-76
2022/05/01 06:41:03;;;;;;;14.32;8.93;;;7.20;99.90;;;;;;4979290;28;20041;-76
2022/05/01 06:43:29;;;;;;;16.20;9.13;;;7.30;99.90;;;;;;4959345;28;20211;-80
2022/05/01 06:45:55;;;;;;;14.65;9.45;;;7.50;99.90;;;;;;4972518;28;20597;-76
2022/05/01 06:48:21;;;;;;;10.35;9.25;;;7.60;99.90;;;;;;4976411;28;20208;-77
2022/05/01 06:51:02;;;;;;;14.40;9.05;;;7.60;99.90;;;;;;4989059;28;20125;-76
2022/05/01 06:53:28;;;;;;;12.40;8.82;;;7.70;99.90;;;;;;4973133;28;20453;-77
2022/05/01 06:55:56;;;;;;;6.30;4.40;;;7.70;99.90;;;;;;4963778;28;20157;-75
2022/05/01 06:58:21;;;;;;;15.63;8.73;;;8.00;99.90;;;;;;4971670;28;20073;-76
2022/05/01 07:00:49;;;;;;;12.40;7.88;;;8.50;99.90;;;;;;4976345;28;20070;-77
2022/05/01 07:03:14;;;;;;;10.13;6.35;;;8.40;99.90;;;;;;4982063;28;20481;-78
2022/05/01 07:05:40;;;;;;;14.57;6.57;;;8.50;99.90;;;;;;4978399;28;20046;-78
2022/05/01 07:08:06;;;;;;;14.45;7.05;;;8.50;99.90;;;;;;4964511;28;20112;-79
2022/05/01 07:10:32;;;;;;;15.57;7.88;;;8.50;99.90;;;;;;4966917;28;20042;-77
2022/05/01 07:12:57;;;;;;;12.32;8.45;;;8.50;99.90;;;;;;4979972;28;20812;-76
2022/05/01 07:15:23;;;;;;;13.77;8.02;;;8.60;99.90;;;;;;4999187;28;20042;-78
2022/05/01 07:17:49;;;;;;;10.40;7.85;;;8.60;99.90;;;;;;4980855;28;20049;-76
2022/05/01 07:20:14;;;;;;;10.02;8.23;;;8.70;99.90;;;;;;4982853;28;20042;-79
2022/05/01 07:22:40;;;;;;;9.05;6.38;;;8.80;99.90;;;;;;4973184;28;20041;-76
2022/05/01 07:25:06;;;;;;;10.68;8.18;;;8.90;99.90;;;;;;4967148;28;20042;-75
2022/05/01 07:27:32;;;;;;;10.68;7.15;;;9.00;99.90;;;;;;4957217;28;20038;-79
2022/05/01 07:29:58;;;;;;;10.20;7.40;;;9.00;99.90;;;;;;4976284;28;20055;-80
2022/05/01 07:32:24;;;;;;;14.10;8.00;;;9.20;99.90;;;;;;4968037;28;20034;-79
2022/05/01 07:34:50;;;;;;;9.00;6.00;;;9.20;99.90;;;;;;4968909;28;20042;-77
2022/05/01 07:37:16;;;;;;;8.25;5.30;;;9.10;99.90;;;;;;4984551;28;20524;-82
2022/05/01 07:39:46;;;;;;;10.05;5.93;;;9.30;99.90;;;;;;4987112;28;20509;-80
2022/05/01 07:42:14;;;;;;;7.55;5.28;;;9.40;99.90;;;;;;4970004;28;20475;-83
2022/05/01 07:44:40;;;;;;;13.25;6.00;;;9.50;99.90;;;;;;4973538;28;20038;-85
2022/05/01 07:47:06;;;;;;;7.72;5.80;;;9.60;99.90;;;;;;5019321;28;20093;-79
2022/05/01 07:49:32;;;;;;;8.05;5.50;;;9.60;99.90;;;;;;5002833;28;20359;-80
2022/05/01 07:51:57;;;;;;;6.50;4.40;;;9.80;99.90;;;;;;4995850;28;20097;-84
2022/05/01 07:54:24;;;;;;;10.07;5.85;;;9.90;99.90;;;;;;4998298;28;20411;-81
2022/05/01 07:56:50;;;;;;;6.82;4.90;;;10.20;99.90;;;;;;4986221;28;20097;-83
2022/05/01 07:59:16;;;;;;;7.95;5.22;;;10.60;99.90;;;;;;4990776;28;20038;-81
2022/05/01 08:01:41;;;;;;;9.55;5.70;;;10.40;99.90;;;;;;4984862;28;20051;-81
2022/05/01 08:06:51;;;;;;;9.00;5.82;;;10.80;99.90;;;;;;4983156;28;20502;-80
2022/05/01 08:09:17;;;;;;;9.10;5.53;;;10.90;99.90;;;;;;4950571;28;20129;-80
2022/05/01 08:11:44;;;;;;;7.45;5.20;;;11.00;99.90;;;;;;4985424;28;20026;-81
2022/05/01 08:14:12;;;;;;;8.13;5.20;;;11.20;99.90;;;;;;4967656;28;20030;-80
2022/05/01 08:16:48;;;;;;;7.97;5.10;;;11.40;99.90;;;;;;4963205;28;20057;-81
2022/05/01 08:22:00;;;;;;;5.18;3.30;;;11.50;99.90;;;;;;4998631;28;20053;-83
2022/05/01 08:24:26;;;;;;;4.50;4.00;;;11.30;99.90;;;;;;4983682;28;20046;-81
2022/05/01 08:26:52;;;;;;;7.65;5.20;;;11.30;99.90;;;;;;4983892;28;20065;-79
2022/05/01 08:29:18;;;;;;;8.50;5.05;;;11.30;99.90;;;;;;4967888;28;20045;-87
2022/05/01 08:31:44;;;;;;;7.85;4.93;;;11.00;99.90;;;;;;5004478;28;20042;-84
2022/05/01 08:34:11;;;;;;;8.10;4.82;;;11.20;99.90;;;;;;4969938;28;20046;-85
2022/05/01 08:36:37;;;;;;;6.25;4.40;;;11.20;99.90;;;;;;4971165;28;20040;-84
2022/05/01 08:39:04;;;;;;;7.45;4.63;;;11.40;99.90;;;;;;4971315;28;20053;-84
2022/05/01 08:41:31;;;;;;;8.75;4.95;;;11.60;99.90;;;;;;4969174;28;20546;-81
2022/05/01 08:43:58;;;;;;;8.73;4.53;;;11.60;99.90;;;;;;4985680;28;20114;-82
2022/05/01 08:46:36;;;;;;;7.28;4.30;;;11.70;99.90;;;;;;4960834;28;20060;-84
2022/05/01 08:49:07;;;;;;;8.52;4.82;;;11.70;99.90;;;;;;4997062;28;20039;-87
2022/05/01 08:51:38;;;;;;;7.40;4.65;;;11.70;99.90;;;;;;4956976;28;20041;-84
2022/05/01 08:54:12;;;;;;;7.05;4.55;;;11.70;99.90;;;;;;4974971;28;20135;-80
2022/05/01 08:56:42;;;;;;;6.07;4.60;;;11.90;99.90;;;;;;4974982;28;20053;-79
2022/05/01 08:59:16;;;;;;;10.85;5.05;;;12.10;99.90;;;;;;4989095;28;20038;-79
2022/05/01 09:01:44;;;;;;;8.23;4.57;;;12.30;99.90;;;;;;4975797;28;20161;-79
2022/05/01 09:04:12;;;;;;;5.82;4.57;;;12.50;99.90;;;;;;4972392;28;20073;-80
2022/05/01 09:06:40;;;;;;;8.52;4.82;;;12.60;99.90;;;;;;4974720;28;20445;-82
2022/05/01 09:09:10;;;;;;;8.00;5.20;;;13.00;99.90;;;;;;4969926;28;20044;-80
2022/05/01 09:14:26;;;;;;;5.55;3.72;;;13.50;99.90;;;;;;5002530;28;20034;-79
2022/05/01 09:17:13;;;;;;;9.82;5.20;;;13.90;99.90;;;;;;4981884;28;20045;-78
2022/05/01 09:19:40;;;;;;;6.30;4.80;;;13.80;99.90;;;;;;4974246;28;20108;-81
2022/05/01 09:22:06;;;;;;;7.13;4.85;;;14.10;99.90;;;;;;4987631;28;20055;-83
2022/05/01 09:24:32;;;;;;;7.63;4.40;;;13.90;99.90;;;;;;4956243;28;20136;-83
2022/05/01 09:26:59;;;;;;;9.85;4.88;;;14.00;99.90;;;;;;4958996;28;20090;-81
2022/05/01 09:29:31;;;;;;;6.15;4.90;;;14.10;99.90;;;;;;5008646;28;20432;-82
2022/05/01 09:31:58;;;;;;;5.60;4.40;;;14.10;99.90;;;;;;4968028;28;20064;-82
2022/05/01 09:34:29;;;;;;;6.70;4.63;;;14.10;99.90;;;;;;4997144;28;20046;-82
2022/05/01 09:36:56;;;;;;;6.72;5.15;;;14.00;99.90;;;;;;4995169;28;20403;-82
2022/05/01 09:39:23;;;;;;;6.78;4.57;;;14.10;99.90;;;;;;4975968;28;20053;-83
2022/05/01 09:41:50;;;;;;;8.20;4.95;;;14.10;99.90;;;;;;5010882;28;20477;-83
2022/05/01 09:44:18;;;;;;;8.35;4.82;;;14.30;99.90;;;;;;4977118;28;20156;-82
2022/05/01 09:46:44;;;;;;;7.93;4.15;;;14.20;99.90;;;;;;4994183;28;20052;-82
2022/05/01 09:49:16;;;;;;;5.28;3.92;;;14.20;99.90;;;;;;4987691;28;20041;-83
2022/05/01 09:51:55;;;;;;;9.25;4.43;;;14.10;99.90;;;;;;4991361;28;20042;-83
2022/05/01 09:54:23;;;;;;;8.27;4.80;;;13.80;99.90;;;;;;5011368;28;20489;-82
2022/05/01 09:56:59;;;;;;;7.00;4.85;;;13.80;99.90;;;;;;5012028;28;20450;-83
2022/05/01 09:59:27;;;;;;;6.85;4.47;;;13.70;99.90;;;;;;4973515;28;20047;-82
2022/05/01 10:02:01;;;;;;;7.35;4.80;;;13.70;99.90;;;;;;4984645;28;20119;-82
2022/05/01 10:04:28;;;;;;;6.25;4.68;;;13.70;99.90;;;;;;4989634;28;20145;-82
2022/05/01 10:06:55;;;;;;;6.65;4.35;;;13.90;99.90;;;;;;4968643;28;20049;-81
2022/05/01 10:09:25;;;;;;;4.85;3.67;;;14.00;99.90;;;;;;4976066;28;20044;-81
2022/05/01 10:11:56;;;;;;;6.00;3.50;;;14.00;99.90;;;;;;4985137;28;20128;-81
2022/05/01 10:14:25;;;;;;;6.45;3.72;;;14.00;99.90;;;;;;4980475;28;20747;-82
2022/05/01 10:16:53;;;;;;;6.32;3.42;;;14.10;99.90;;;;;;4958004;28;20043;-81
2022/05/01 10:19:19;;;;;;;8.07;3.63;;;13.80;99.90;;;;;;5023539;28;20145;-81
2022/05/01 10:21:49;;;;;;;6.25;3.97;;;14.20;99.90;;;;;;4998384;28;20395;-84
2022/05/01 10:24:19;;;;;;;5.28;3.55;;;14.10;99.90;;;;;;4992947;28;20041;-81
2022/05/01 10:27:24;;;;;;;5.22;3.72;;;14.20;99.90;;;;;;4973765;28;20070;-83
2022/05/01 10:33:25;;;;;;;6.68;3.70;;;14.00;99.90;;;;;;4973984;28;20136;-82
2022/05/01 10:36:29;;;;;;;4.85;3.55;;;14.10;99.90;;;;;;4993910;28;20037;-83
2022/05/01 10:39:09;;;;;;;6.40;4.10;;;14.70;99.90;;;;;;4984519;28;20192;-81
2022/05/01 10:41:39;;;;;;;5.90;4.22;;;15.10;99.90;;;;;;4991070;28;20039;-83
2022/05/01 10:44:05;;;;;;;6.47;4.20;;;15.30;99.90;;;;;;4984651;28;20399;-77
2022/05/01 10:46:32;;;;;;;7.15;4.18;;;15.50;99.90;;;;;;4990826;28;20048;-78
2022/05/01 10:49:05;;;;;;;7.78;3.90;;;15.70;99.90;;;;;;4983560;28;20129;-82
2022/05/01 10:51:31;;;;;;;5.50;3.65;;;15.80;99.90;;;;;;4976556;28;20121;-82
2022/05/01 10:54:19;;;;;;;7.32;3.80;;;15.70;99.90;;;;;;4994131;28;20125;-82
2022/05/01 10:56:51;;;;;;;7.05;3.80;;;15.80;99.90;;;;;;4977993;28;20497;-83
2022/05/01 10:59:38;;;;;;;5.43;3.70;;;15.40;99.90;;;;;;5007686;28;20052;-82
2022/05/01 11:02:06;;;;;;;7.30;3.90;;;14.90;99.90;;;;;;4994042;28;20125;-83
2022/05/01 11:04:36;;;;;;;5.13;3.40;;;14.70;99.90;;;;;;5010139;28;20473;-82
2022/05/01 11:07:04;;;;;;;7.28;3.65;;;14.60;99.90;;;;;;4993175;28;20476;-82
2022/05/01 11:09:34;;;;;;;9.02;4.22;;;14.60;99.90;;;;;;4973241;28;20512;-81
2022/05/01 11:12:01;;;;;;;5.50;3.35;;;14.70;99.90;;;;;;4994105;28;20519;-82
2022/05/01 11:14:40;;;;;;;5.50;3.50;;;14.90;99.90;;;;;;4994670;28;20034;-81
2022/05/01 11:17:07;;;;;;;5.20;3.20;;;14.70;99.90;;;;;;4988206;28;20129;-82
2022/05/01 11:19:50;;;;;;;7.40;3.83;;;14.80;99.90;;;;;;4979905;28;20465;-82
2022/05/01 11:22:22;;;;;;;5.15;3.60;;;14.90;99.90;;;;;;4980066;28;20045;-81
2022/05/01 11:24:48;;;;;;;19.80;3.13;;;14.90;99.90;;;;;;4981911;28;20077;-82
2022/05/01 11:27:18;;;;;;;7.15;3.67;;;14.90;99.90;;;;;;4993997;28;20394;-82
2022/05/01 11:30:06;;;;;;;5.95;3.60;;;14.70;99.90;;;;;;4980448;28;20038;-82
2022/05/01 11:33:01;;;;;;;5.88;3.47;;;14.90;99.90;;;;;;5004685;28;20040;-82
2022/05/01 11:36:05;;;;;;;5.93;3.63;;;14.90;99.90;;;;;;4916444;29;20047;-82
2022/05/01 11:38:53;;;;;;;6.35;3.97;;;15.50;99.90;;;;;;4879624;29;20074;-82
2022/05/01 11:41:41;;;;;;;6.15;3.55;;;15.50;99.90;;;;;;4894545;29;20064;-82
2022/05/01 11:44:20;;;;;;;6.80;3.70;;;15.80;99.90;;;;;;4877152;29;20527;-81
2022/05/01 11:46:47;;;;;;;4.93;3.38;;;16.00;99.90;;;;;;4879508;29;20443;-82
2022/05/01 11:49:13;;;;;;;4.80;3.58;;;16.30;99.90;;;;;;4881937;29;20378;-82
2022/05/01 11:51:39;;;;;;;5.22;3.45;;;16.10;99.90;;;;;;4883291;29;20059;-82
2022/05/01 11:54:25;;;;;;;3.78;3.03;;;16.50;99.90;;;;;;4899918;29;20043;-83
2022/05/01 12:02:27;;;;;;;;;;;16.10;99.70;;;;;;4880808;29;20056;-82
2022/05/01 12:05:03;;;;;;;4.85;3.10;;;16.40;98.80;;;;;;4880691;29;19930;-82
2022/05/01 12:07:29;;;;;;;4.22;2.80;;;16.40;99.30;;;;;;4881325;29;20040;-82
2022/05/01 12:09:55;;;;;;;5.15;3.25;;;16.90;99.70;;;;;;4901863;29;20087;-82
2022/05/01 12:12:28;;;;;;;6.05;3.15;;;17.20;98.40;;;;;;4974862;28;20053;-80
2022/05/01 12:14:54;;;;;;;4.00;2.75;;;17.60;98.90;;;;;;5027102;28;20049;-78
2022/05/01 12:17:21;;;;;;;5.45;2.85;;;17.70;95.50;;;;;;4979956;28;20091;-83
2022/05/01 12:19:48;;;;;;;5.28;3.00;;;18.50;99.60;;;;;;5004432;28;20045;-84
2022/05/01 12:22:16;;;;;;;4.88;3.10;;;18.20;95.70;;;;;;4985187;28;20061;-83
2022/05/01 12:24:46;;;;;;;5.57;2.67;;;18.50;94.10;;;;;;4963830;28;20481;-83
2022/05/01 12:27:13;;;;;;;4.97;2.63;;;18.50;94.60;;;;;;4990281;28;20042;-83
2022/05/01 12:30:04;;;;;;;6.15;2.78;;;18.10;93.70;;;;;;4978501;28;20054;-84
2022/05/01 12:32:31;;;;;;;4.25;2.65;;;18.30;93.10;;;;;;4981156;28;20038;-82
2022/05/01 12:35:00;;;;;;;4.43;2.53;;;18.10;95.10;;;;;;5009016;28;20080;-82
2022/05/01 12:37:30;;;;;;;5.18;3.03;;;17.90;95.80;;;;;;4972891;28;20053;-83
2022/05/01 12:40:10;;;;;;;5.85;2.40;;;18.30;94.60;;;;;;4979965;28;20080;-83
2022/05/01 12:45:43;;;;;;;4.00;2.70;;;18.50;93.00;;;;;;5018263;28;20049;-83
2022/05/01 12:48:11;;;;;;;2.90;2.40;;;18.00;90.90;;;;;;5018650;28;20045;-83
2022/05/01 12:50:38;;;;;;;7.22;2.70;;;17.90;91.80;;;;;;5014218;28;20060;-84
2022/05/01 12:53:42;;;;;;;2.53;2.20;;;18.00;92.50;;;;;;5011557;28;20141;-82
2022/05/01 12:56:22;;;;;;;6.80;2.70;;;18.30;93.40;;;;;;4960249;28;20050;-84
2022/05/01 12:58:49;;;;;;;5.20;2.63;;;18.50;91.20;;;;;;4969743;28;20065;-84
2022/05/01 13:01:23;;;;;;;4.30;2.60;;;18.20;92.60;;;;;;5012974;28;20154;-84
2022/05/01 13:03:49;;;;;;;3.67;2.88;;;17.90;93.00;;;;;;4982977;28;20085;-83
2022/05/01 13:06:16;;;;;;;5.43;3.15;;;17.00;95.30;;;;;;4975244;28;20069;-83
2022/05/01 13:08:46;;;;;;;6.55;2.60;;;17.10;96.30;;;;;;4975369;28;20647;-82
2022/05/01 13:11:23;;;;;;;4.32;2.60;;;16.70;96.50;;;;;;5007577;28;20072;-83
2022/05/01 13:14:09;;;;;;;3.90;2.80;;;16.40;97.20;;;;;;4959293;28;20706;-83
2022/05/01 13:16:35;;;;;;;3.22;2.85;;;16.60;98.30;;;;;;4968795;28;21779;-84
2022/05/01 13:19:06;;;;;;;3.85;2.70;;;16.90;98.30;;;;;;4974786;28;20117;-84
2022/05/01 13:21:34;;;;;;;3.88;2.60;;;17.20;97.90;;;;;;4990230;28;20043;-85
2022/05/01 13:24:08;;;;;;;4.28;2.78;;;18.00;96.80;;;;;;4990157;28;20430;-84
2022/05/01 13:26:34;;;;;;;;;;;18.30;95.40;;;;;;4995107;28;20128;-84
2022/05/01 13:29:00;;;;;;;3.60;2.67;;;18.30;94.20;;;;;;5014236;28;19971;-83